OMDB/DXB METAR and TAF weather

Enter ICAO airport designator
Station Type Date Time Source
OMDB METAR 2020/01/19 00:00 UTC NOAA

OMDB 190000Z 12006KT 070V150 CAVOK 18/12 Q1017 NOSIG


Station Type Date Time Source
OMDB Decoded METAR 2020/01/19 00:00 UTC NOAA

Dubai International Airport, United Arab Emirates (OMDB) 25-15N 055-20E 5M
Jan 18, 2020 - 07:00 PM EST / 2020.01.19 0000 UTC
Wind: from the ESE (120 degrees) at 7 MPH (6 KT) (direction variable):0
Visibility: greater than 7 mile(s):0
Temperature: 64 F (18 C)
Dew Point: 53 F (12 C)
Relative Humidity: 67%
Pressure (altimeter): 30.03 in. Hg (1017 hPa)
ob: OMDB 190000Z 12006KT 070V150 CAVOK 18/12 Q1017 NOSIG
cycle: 0

Station Type Date Time Source
OMDB TAF 2020/01/18 18:03 UTC NOAA

TAF OMDB 181653Z 1818/2000 14007KT CAVOK
BECMG 1905/1907 21010KT
BECMG 1910/1912 31010KT
BECMG 1916/1918 13005KT

Example: see airport list